sensor_id;sensor_type;location;lat;lon;timestamp;temperature;humidity
67899;DHT22;54699;51.796;10.956;2023-10-09T00:02:02;22.10;58.80
67899;DHT22;54699;51.796;10.956;2023-10-09T00:04:32;22.10;58.80
67899;DHT22;54699;51.796;10.956;2023-10-09T00:07:02;22.10;58.70
67899;DHT22;54699;51.796;10.956;2023-10-09T00:09:33;22.10;58.70
67899;DHT22;54699;51.796;10.956;2023-10-09T00:12:13;22.10;58.80
67899;DHT22;54699;51.796;10.956;2023-10-09T00:14:42;22.10;58.70
67899;DHT22;54699;51.796;10.956;2023-10-09T00:17:14;22.10;58.80
67899;DHT22;54699;51.796;10.956;2023-10-09T00:19:44;22.10;58.70
67899;DHT22;54699;51.796;10.956;2023-10-09T00:22:15;22.10;58.80
67899;DHT22;54699;51.796;10.956;2023-10-09T00:24:55;22.10;58.80
67899;DHT22;54699;51.796;10.956;2023-10-09T00:27:37;22.10;58.70
67899;DHT22;54699;51.796;10.956;2023-10-09T00:30:10;22.10;58.70
67899;DHT22;54699;51.796;10.956;2023-10-09T00:32:40;22.10;58.70
67899;DHT22;54699;51.796;10.956;2023-10-09T00:35:24;22.10;58.60
67899;DHT22;54699;51.796;10.956;2023-10-09T00:38:08;22.10;58.70
67899;DHT22;54699;51.796;10.956;2023-10-09T00:40:48;22.10;58.70
67899;DHT22;54699;51.796;10.956;2023-10-09T00:43:22;22.10;58.70
67899;DHT22;54699;51.796;10.956;2023-10-09T00:45:55;22.10;58.60
67899;DHT22;54699;51.796;10.956;2023-10-09T00:48:25;22.10;58.70
67899;DHT22;54699;51.796;10.956;2023-10-09T00:50:59;22.10;58.70
67899;DHT22;54699;51.796;10.956;2023-10-09T00:53:26;22.10;58.70
67899;DHT22;54699;51.796;10.956;2023-10-09T00:55:58;22.10;58.70
67899;DHT22;54699;51.796;10.956;2023-10-09T00:58:36;22.10;58.70
67899;DHT22;54699;51.796;10.956;2023-10-09T01:01:06;22.10;58.60
67899;DHT22;54699;51.796;10.956;2023-10-09T01:03:41;22.10;58.70
67899;DHT22;54699;51.796;10.956;2023-10-09T01:06:10;22.10;58.60
67899;DHT22;54699;51.796;10.956;2023-10-09T01:08:46;22.00;58.60
67899;DHT22;54699;51.796;10.956;2023-10-09T01:11:22;22.10;58.60
67899;DHT22;54699;51.796;10.956;2023-10-09T01:13:55;22.10;58.70
67899;DHT22;54699;51.796;10.956;2023-10-09T01:16:38;22.00;59.50
67899;DHT22;54699;51.796;10.956;2023-10-09T01:19:07;22.10;58.70
67899;DHT22;54699;51.796;10.956;2023-10-09T01:21:46;22.00;58.60
67899;DHT22;54699;51.796;10.956;2023-10-09T01:24:15;22.00;58.60
67899;DHT22;54699;51.796;10.956;2023-10-09T01:26:45;22.00;58.60
67899;DHT22;54699;51.796;10.956;2023-10-09T01:29:13;22.00;58.60
67899;DHT22;54699;51.796;10.956;2023-10-09T01:31:45;22.00;58.60
67899;DHT22;54699;51.796;10.956;2023-10-09T01:34:21;22.00;58.60
67899;DHT22;54699;51.796;10.956;2023-10-09T01:37:03;22.00;58.70
67899;DHT22;54699;51.796;10.956;2023-10-09T01:39:39;22.00;58.60
67899;DHT22;54699;51.796;10.956;2023-10-09T01:42:07;22.00;58.50
67899;DHT22;54699;51.796;10.956;2023-10-09T01:44:35;22.00;58.60
67899;DHT22;54699;51.796;10.956;2023-10-09T01:47:08;22.00;58.60
67899;DHT22;54699;51.796;10.956;2023-10-09T01:49:39;22.00;58.60
67899;DHT22;54699;51.796;10.956;2023-10-09T01:52:09;22.00;58.60
67899;DHT22;54699;51.796;10.956;2023-10-09T01:54:42;22.00;58.60
67899;DHT22;54699;51.796;10.956;2023-10-09T01:57:13;22.00;58.60
67899;DHT22;54699;51.796;10.956;2023-10-09T01:59:47;22.00;58.60
67899;DHT22;54699;51.796;10.956;2023-10-09T02:02:15;22.00;58.60
67899;DHT22;54699;51.796;10.956;2023-10-09T02:04:52;22.00;58.60
67899;DHT22;54699;51.796;10.956;2023-10-09T02:07:22;22.00;58.60
67899;DHT22;54699;51.796;10.956;2023-10-09T02:09:55;22.00;58.60
67899;DHT22;54699;51.796;10.956;2023-10-09T02:12:23;22.00;58.60
67899;DHT22;54699;51.796;10.956;2023-10-09T02:14:50;22.00;58.60
67899;DHT22;54699;51.796;10.956;2023-10-09T02:17:21;22.00;58.60
67899;DHT22;54699;51.796;10.956;2023-10-09T02:19:54;22.00;58.70
67899;DHT22;54699;51.796;10.956;2023-10-09T02:22:22;22.00;58.60
67899;DHT22;54699;51.796;10.956;2023-10-09T02:24:51;22.00;58.60
67899;DHT22;54699;51.796;10.956;2023-10-09T02:27:25;22.00;58.60
67899;DHT22;54699;51.796;10.956;2023-10-09T02:30:10;22.00;58.60
67899;DHT22;54699;51.796;10.956;2023-10-09T02:32:45;22.00;58.70
67899;DHT22;54699;51.796;10.956;2023-10-09T02:35:18;22.00;58.60
67899;DHT22;54699;51.796;10.956;2023-10-09T02:37:56;22.00;58.60
67899;DHT22;54699;51.796;10.956;2023-10-09T02:40:26;22.00;58.60
67899;DHT22;54699;51.796;10.956;2023-10-09T02:42:59;22.00;58.70
67899;DHT22;54699;51.796;10.956;2023-10-09T02:45:26;22.00;58.70
67899;DHT22;54699;51.796;10.956;2023-10-09T02:48:03;22.00;58.70
67899;DHT22;54699;51.796;10.956;2023-10-09T02:50:36;22.00;58.70
67899;DHT22;54699;51.796;10.956;2023-10-09T02:53:03;22.00;58.60
67899;DHT22;54699;51.796;10.956;2023-10-09T02:55:35;22.00;58.70
67899;DHT22;54699;51.796;10.956;2023-10-09T02:58:05;21.90;58.50
67899;DHT22;54699;51.796;10.956;2023-10-09T03:00:36;22.00;58.70
67899;DHT22;54699;51.796;10.956;2023-10-09T03:03:03;22.00;58.70
67899;DHT22;54699;51.796;10.956;2023-10-09T03:05:32;22.00;58.60
67899;DHT22;54699;51.796;10.956;2023-10-09T03:07:59;21.90;58.50
67899;DHT22;54699;51.796;10.956;2023-10-09T03:10:27;21.90;58.50
67899;DHT22;54699;51.796;10.956;2023-10-09T03:12:54;21.90;58.50
67899;DHT22;54699;51.796;10.956;2023-10-09T03:15:22;21.90;58.50
67899;DHT22;54699;51.796;10.956;2023-10-09T03:17:49;21.90;58.40
67899;DHT22;54699;51.796;10.956;2023-10-09T03:20:16;21.90;58.50
67899;DHT22;54699;51.796;10.956;2023-10-09T03:22:44;21.90;58.40
67899;DHT22;54699;51.796;10.956;2023-10-09T03:25:13;21.90;58.30
67899;DHT22;54699;51.796;10.956;2023-10-09T03:27:42;21.90;58.40
67899;DHT22;54699;51.796;10.956;2023-10-09T03:30:12;21.90;58.30
67899;DHT22;54699;51.796;10.956;2023-10-09T03:32:49;21.90;58.30
67899;DHT22;54699;51.796;10.956;2023-10-09T03:35:17;21.90;58.50
67899;DHT22;54699;51.796;10.956;2023-10-09T03:37:53;21.90;58.40
67899;DHT22;54699;51.796;10.956;2023-10-09T03:40:22;21.90;58.30
67899;DHT22;54699;51.796;10.956;2023-10-09T03:42:50;21.90;58.30
67899;DHT22;54699;51.796;10.956;2023-10-09T03:45:18;21.90;58.30
67899;DHT22;54699;51.796;10.956;2023-10-09T03:47:53;21.80;58.30
67899;DHT22;54699;51.796;10.956;2023-10-09T03:50:28;21.90;58.30
67899;DHT22;54699;51.796;10.956;2023-10-09T03:53:01;21.90;58.30
67899;DHT22;54699;51.796;10.956;2023-10-09T03:55:34;21.90;58.30
67899;DHT22;54699;51.796;10.956;2023-10-09T03:58:03;21.80;58.30
67899;DHT22;54699;51.796;10.956;2023-10-09T04:00:31;21.90;58.20
67899;DHT22;54699;51.796;10.956;2023-10-09T04:03:07;21.80;58.30
67899;DHT22;54699;51.796;10.956;2023-10-09T04:05:37;21.90;58.30
67899;DHT22;54699;51.796;10.956;2023-10-09T04:08:06;21.90;58.30
67899;DHT22;54699;51.796;10.956;2023-10-09T04:10:39;21.90;58.20
67899;DHT22;54699;51.796;10.956;2023-10-09T04:13:22;21.90;58.20
67899;DHT22;54699;51.796;10.956;2023-10-09T04:15:57;21.90;58.20
67899;DHT22;54699;51.796;10.956;2023-10-09T04:18:27;21.90;58.30
67899;DHT22;54699;51.796;10.956;2023-10-09T04:20:58;21.90;58.40
67899;DHT22;54699;51.796;10.956;2023-10-09T04:23:44;21.80;58.40
67899;DHT22;54699;51.796;10.956;2023-10-09T04:26:35;21.90;58.40
67899;DHT22;54699;51.796;10.956;2023-10-09T04:29:02;21.90;58.40
67899;DHT22;54699;51.796;10.956;2023-10-09T04:31:30;21.80;58.30
67899;DHT22;54699;51.796;10.956;2023-10-09T04:34:04;21.90;58.30
67899;DHT22;54699;51.796;10.956;2023-10-09T04:36:48;21.90;58.20
67899;DHT22;54699;51.796;10.956;2023-10-09T04:39:16;21.90;58.30
67899;DHT22;54699;51.796;10.956;2023-10-09T04:41:58;21.90;58.40
67899;DHT22;54699;51.796;10.956;2023-10-09T04:44:45;21.90;58.40
67899;DHT22;54699;51.796;10.956;2023-10-09T04:47:44;21.90;58.20
67899;DHT22;54699;51.796;10.956;2023-10-09T04:50:24;21.90;58.30
67899;DHT22;54699;51.796;10.956;2023-10-09T04:53:30;21.90;58.20
67899;DHT22;54699;51.796;10.956;2023-10-09T04:56:04;21.80;57.60
67899;DHT22;54699;51.796;10.956;2023-10-09T04:58:41;21.80;57.00
67899;DHT22;54699;51.796;10.956;2023-10-09T05:01:16;21.80;57.60
67899;DHT22;54699;51.796;10.956;2023-10-09T05:04:02;21.70;57.00
67899;DHT22;54699;51.796;10.956;2023-10-09T05:06:53;21.80;58.50
67899;DHT22;54699;51.796;10.956;2023-10-09T05:09:23;21.80;58.20
67899;DHT22;54699;51.796;10.956;2023-10-09T05:11:49;21.70;57.90
67899;DHT22;54699;51.796;10.956;2023-10-09T05:14:35;21.70;58.00
67899;DHT22;54699;51.796;10.956;2023-10-09T05:17:05;21.70;57.60
67899;DHT22;54699;51.796;10.956;2023-10-09T05:19:41;21.80;57.60
67899;DHT22;54699;51.796;10.956;2023-10-09T05:22:21;21.80;58.30
67899;DHT22;54699;51.796;10.956;2023-10-09T05:25:03;21.80;58.20
67899;DHT22;54699;51.796;10.956;2023-10-09T05:27:41;21.80;58.10
67899;DHT22;54699;51.796;10.956;2023-10-09T05:30:11;21.90;58.10
67899;DHT22;54699;51.796;10.956;2023-10-09T05:32:59;21.90;57.90
67899;DHT22;54699;51.796;10.956;2023-10-09T05:35:45;21.80;58.10
67899;DHT22;54699;51.796;10.956;2023-10-09T05:38:32;21.80;58.30
67899;DHT22;54699;51.796;10.956;2023-10-09T05:41:01;21.80;58.30
67899;DHT22;54699;51.796;10.956;2023-10-09T05:43:51;21.90;58.40
67899;DHT22;54699;51.796;10.956;2023-10-09T05:46:39;21.80;57.80
67899;DHT22;54699;51.796;10.956;2023-10-09T05:49:27;21.80;57.50
67899;DHT22;54699;51.796;10.956;2023-10-09T05:52:11;21.80;58.00
67899;DHT22;54699;51.796;10.956;2023-10-09T05:54:54;21.80;57.40
67899;DHT22;54699;51.796;10.956;2023-10-09T05:57:50;21.80;57.80
67899;DHT22;54699;51.796;10.956;2023-10-09T06:00:37;21.70;58.00
67899;DHT22;54699;51.796;10.956;2023-10-09T06:03:21;21.70;57.90
67899;DHT22;54699;51.796;10.956;2023-10-09T06:05:53;21.70;57.60
67899;DHT22;54699;51.796;10.956;2023-10-09T06:08:31;21.80;58.00
67899;DHT22;54699;51.796;10.956;2023-10-09T06:11:33;21.80;57.70
67899;DHT22;54699;51.796;10.956;2023-10-09T06:14:07;21.80;58.20
67899;DHT22;54699;51.796;10.956;2023-10-09T06:16:39;21.80;58.00
67899;DHT22;54699;51.796;10.956;2023-10-09T06:19:06;21.80;58.60
67899;DHT22;54699;51.796;10.956;2023-10-09T06:21:37;21.80;58.60
67899;DHT22;54699;51.796;10.956;2023-10-09T06:24:21;21.90;58.60
67899;DHT22;54699;51.796;10.956;2023-10-09T06:26:51;21.90;58.80
67899;DHT22;54699;51.796;10.956;2023-10-09T06:29:39;21.90;58.80
67899;DHT22;54699;51.796;10.956;2023-10-09T06:32:18;21.90;58.80
67899;DHT22;54699;51.796;10.956;2023-10-09T06:35:03;21.90;58.70
67899;DHT22;54699;51.796;10.956;2023-10-09T06:37:44;21.90;59.00
67899;DHT22;54699;51.796;10.956;2023-10-09T06:40:29;21.90;58.90
67899;DHT22;54699;51.796;10.956;2023-10-09T06:43:20;21.90;59.10
67899;DHT22;54699;51.796;10.956;2023-10-09T06:45:54;21.90;59.20
67899;DHT22;54699;51.796;10.956;2023-10-09T06:48:44;21.90;59.20
67899;DHT22;54699;51.796;10.956;2023-10-09T06:51:21;21.90;59.40
67899;DHT22;54699;51.796;10.956;2023-10-09T06:54:07;21.80;59.30
67899;DHT22;54699;51.796;10.956;2023-10-09T06:56:41;21.80;59.40
67899;DHT22;54699;51.796;10.956;2023-10-09T06:59:37;21.90;59.20
67899;DHT22;54699;51.796;10.956;2023-10-09T07:02:25;21.90;59.50
67899;DHT22;54699;51.796;10.956;2023-10-09T07:04:52;21.80;59.40
67899;DHT22;54699;51.796;10.956;2023-10-09T07:07:20;21.90;59.60
67899;DHT22;54699;51.796;10.956;2023-10-09T07:09:51;21.90;59.70
67899;DHT22;54699;51.796;10.956;2023-10-09T07:12:36;21.90;59.70
67899;DHT22;54699;51.796;10.956;2023-10-09T07:15:08;21.90;59.70
67899;DHT22;54699;51.796;10.956;2023-10-09T07:17:54;21.90;59.70
67899;DHT22;54699;51.796;10.956;2023-10-09T07:20:21;21.90;59.70
67899;DHT22;54699;51.796;10.956;2023-10-09T07:23:02;21.90;59.90
67899;DHT22;54699;51.796;10.956;2023-10-09T07:25:40;21.90;60.10
67899;DHT22;54699;51.796;10.956;2023-10-09T07:28:07;21.80;60.00
67899;DHT22;54699;51.796;10.956;2023-10-09T07:30:55;21.90;61.10
67899;DHT22;54699;51.796;10.956;2023-10-09T07:33:25;21.90;60.20
67899;DHT22;54699;51.796;10.956;2023-10-09T07:36:17;21.90;60.50
67899;DHT22;54699;51.796;10.956;2023-10-09T07:38:55;21.90;60.50
67899;DHT22;54699;51.796;10.956;2023-10-09T07:41:30;21.90;60.60
67899;DHT22;54699;51.796;10.956;2023-10-09T07:44:13;22.00;61.90
67899;DHT22;54699;51.796;10.956;2023-10-09T07:47:01;22.10;61.20
67899;DHT22;54699;51.796;10.956;2023-10-09T07:49:51;22.10;61.00
67899;DHT22;54699;51.796;10.956;2023-10-09T07:52:24;22.20;61.60
67899;DHT22;54699;51.796;10.956;2023-10-09T07:54:55;22.40;61.70
67899;DHT22;54699;51.796;10.956;2023-10-09T07:57:29;22.50;61.00
67899;DHT22;54699;51.796;10.956;2023-10-09T08:00:07;22.60;62.40
67899;DHT22;54699;51.796;10.956;2023-10-09T08:02:49;22.70;62.40
67899;DHT22;54699;51.796;10.956;2023-10-09T08:05:26;22.60;61.70
67899;DHT22;54699;51.796;10.956;2023-10-09T08:07:59;22.50;61.80
67899;DHT22;54699;51.796;10.956;2023-10-09T08:10:51;22.50;60.30
67899;DHT22;54699;51.796;10.956;2023-10-09T08:13:36;22.40;61.00
67899;DHT22;54699;51.796;10.956;2023-10-09T08:16:26;22.40;58.30
67899;DHT22;54699;51.796;10.956;2023-10-09T08:19:01;22.30;58.70
67899;DHT22;54699;51.796;10.956;2023-10-09T08:21:47;22.30;56.70
67899;DHT22;54699;51.796;10.956;2023-10-09T08:24:42;22.20;57.40
67899;DHT22;54699;51.796;10.956;2023-10-09T08:27:18;22.20;56.50
67899;DHT22;54699;51.796;10.956;2023-10-09T08:30:03;22.10;59.20
67899;DHT22;54699;51.796;10.956;2023-10-09T08:32:53;22.10;58.10
67899;DHT22;54699;51.796;10.956;2023-10-09T08:35:26;22.10;58.90
67899;DHT22;54699;51.796;10.956;2023-10-09T08:37:57;22.10;57.60
67899;DHT22;54699;51.796;10.956;2023-10-09T08:40:31;22.10;61.80
67899;DHT22;54699;51.796;10.956;2023-10-09T08:43:06;22.00;62.80
67899;DHT22;54699;51.796;10.956;2023-10-09T08:45:36;22.00;62.20
67899;DHT22;54699;51.796;10.956;2023-10-09T08:48:06;22.00;62.70
67899;DHT22;54699;51.796;10.956;2023-10-09T08:50:34;22.00;63.60
67899;DHT22;54699;51.796;10.956;2023-10-09T08:53:04;22.00;61.90
67899;DHT22;54699;51.796;10.956;2023-10-09T08:55:31;22.00;61.10
67899;DHT22;54699;51.796;10.956;2023-10-09T08:57:58;22.00;62.70
67899;DHT22;54699;51.796;10.956;2023-10-09T09:00:25;22.00;62.60
67899;DHT22;54699;51.796;10.956;2023-10-09T09:02:58;22.00;63.10
67899;DHT22;54699;51.796;10.956;2023-10-09T09:05:26;22.00;63.00
67899;DHT22;54699;51.796;10.956;2023-10-09T09:07:54;22.00;63.10
67899;DHT22;54699;51.796;10.956;2023-10-09T09:10:28;22.00;61.20
67899;DHT22;54699;51.796;10.956;2023-10-09T09:13:01;22.00;60.00
67899;DHT22;54699;51.796;10.956;2023-10-09T09:15:29;22.00;58.80
67899;DHT22;54699;51.796;10.956;2023-10-09T09:18:06;22.00;60.90
67899;DHT22;54699;51.796;10.956;2023-10-09T09:20:36;22.00;60.90
67899;DHT22;54699;51.796;10.956;2023-10-09T09:23:08;22.00;61.00
67899;DHT22;54699;51.796;10.956;2023-10-09T09:25:43;22.00;59.60
67899;DHT22;54699;51.796;10.956;2023-10-09T09:28:11;22.00;62.50
67899;DHT22;54699;51.796;10.956;2023-10-09T09:30:39;22.00;62.20
67899;DHT22;54699;51.796;10.956;2023-10-09T09:33:16;22.00;61.50
67899;DHT22;54699;51.796;10.956;2023-10-09T09:35:55;22.00;62.60
67899;DHT22;54699;51.796;10.956;2023-10-09T09:38:26;22.10;62.60
67899;DHT22;54699;51.796;10.956;2023-10-09T09:41:00;22.10;62.40
67899;DHT22;54699;51.796;10.956;2023-10-09T09:43:32;22.10;63.00
67899;DHT22;54699;51.796;10.956;2023-10-09T09:46:07;22.20;62.90
67899;DHT22;54699;51.796;10.956;2023-10-09T09:48:40;22.20;59.60
67899;DHT22;54699;51.796;10.956;2023-10-09T09:51:12;22.30;61.10
67899;DHT22;54699;51.796;10.956;2023-10-09T09:53:42;22.30;62.90
67899;DHT22;54699;51.796;10.956;2023-10-09T09:56:16;22.30;61.80
67899;DHT22;54699;51.796;10.956;2023-10-09T09:58:49;22.40;61.40
67899;DHT22;54699;51.796;10.956;2023-10-09T10:01:19;22.50;62.50
67899;DHT22;54699;51.796;10.956;2023-10-09T10:03:53;22.50;62.90
67899;DHT22;54699;51.796;10.956;2023-10-09T10:06:25;22.70;63.00
67899;DHT22;54699;51.796;10.956;2023-10-09T10:08:55;22.60;61.60
67899;DHT22;54699;51.796;10.956;2023-10-09T10:11:42;22.50;61.20
67899;DHT22;54699;51.796;10.956;2023-10-09T10:14:11;22.50;61.00
67899;DHT22;54699;51.796;10.956;2023-10-09T10:16:59;22.50;61.20
67899;DHT22;54699;51.796;10.956;2023-10-09T10:19:34;22.50;61.80
67899;DHT22;54699;51.796;10.956;2023-10-09T10:22:49;22.40;59.20
67899;DHT22;54699;51.796;10.956;2023-10-09T10:28:20;22.40;61.80
67899;DHT22;54699;51.796;10.956;2023-10-09T10:31:07;22.30;62.30
67899;DHT22;54699;51.796;10.956;2023-10-09T10:36:35;22.30;62.80
67899;DHT22;54699;51.796;10.956;2023-10-09T10:39:08;22.30;63.00
67899;DHT22;54699;51.796;10.956;2023-10-09T10:41:36;22.30;62.70
67899;DHT22;54699;51.796;10.956;2023-10-09T10:44:18;22.30;63.10
67899;DHT22;54699;51.796;10.956;2023-10-09T10:47:04;22.30;63.40
67899;DHT22;54699;51.796;10.956;2023-10-09T10:49:43;22.30;63.50
67899;DHT22;54699;51.796;10.956;2023-10-09T10:52:19;22.30;63.50
67899;DHT22;54699;51.796;10.956;2023-10-09T10:54:47;22.30;62.20
67899;DHT22;54699;51.796;10.956;2023-10-09T10:57:34;22.30;63.40
67899;DHT22;54699;51.796;10.956;2023-10-09T11:00:20;22.30;63.10
67899;DHT22;54699;51.796;10.956;2023-10-09T11:03:05;22.30;63.60
67899;DHT22;54699;51.796;10.956;2023-10-09T11:05:44;22.20;62.90
67899;DHT22;54699;51.796;10.956;2023-10-09T11:08:16;22.30;63.10
67899;DHT22;54699;51.796;10.956;2023-10-09T11:10:48;22.20;63.20
67899;DHT22;54699;51.796;10.956;2023-10-09T11:13:23;22.20;63.30
67899;DHT22;54699;51.796;10.956;2023-10-09T11:15:57;22.20;63.00
67899;DHT22;54699;51.796;10.956;2023-10-09T11:18:40;22.20;63.20
67899;DHT22;54699;51.796;10.956;2023-10-09T11:21:15;22.20;62.30
67899;DHT22;54699;51.796;10.956;2023-10-09T11:23:59;22.20;60.90
67899;DHT22;54699;51.796;10.956;2023-10-09T11:26:47;22.20;63.50
67899;DHT22;54699;51.796;10.956;2023-10-09T11:29:20;22.10;63.10
67899;DHT22;54699;51.796;10.956;2023-10-09T11:32:00;22.20;61.40
67899;DHT22;54699;51.796;10.956;2023-10-09T11:34:29;22.20;62.90
67899;DHT22;54699;51.796;10.956;2023-10-09T11:37:00;22.10;63.00
67899;DHT22;54699;51.796;10.956;2023-10-09T11:39:27;22.20;60.10
67899;DHT22;54699;51.796;10.956;2023-10-09T11:42:02;22.10;63.20
67899;DHT22;54699;51.796;10.956;2023-10-09T11:44:36;22.10;62.80
67899;DHT22;54699;51.796;10.956;2023-10-09T11:47:07;22.10;63.00
67899;DHT22;54699;51.796;10.956;2023-10-09T11:49:49;22.10;62.00
67899;DHT22;54699;51.796;10.956;2023-10-09T11:52:23;22.10;60.30
67899;DHT22;54699;51.796;10.956;2023-10-09T11:55:03;22.10;61.70
67899;DHT22;54699;51.796;10.956;2023-10-09T11:57:32;22.10;62.60
67899;DHT22;54699;51.796;10.956;2023-10-09T11:59:59;22.00;63.00
67899;DHT22;54699;51.796;10.956;2023-10-09T12:02:33;22.10;62.60
67899;DHT22;54699;51.796;10.956;2023-10-09T12:05:09;22.10;63.20
67899;DHT22;54699;51.796;10.956;2023-10-09T12:07:42;22.10;62.20
67899;DHT22;54699;51.796;10.956;2023-10-09T12:10:10;22.10;62.70
67899;DHT22;54699;51.796;10.956;2023-10-09T12:12:39;22.10;62.60
67899;DHT22;54699;51.796;10.956;2023-10-09T12:15:11;22.10;63.60
67899;DHT22;54699;51.796;10.956;2023-10-09T12:17:43;22.10;63.70
67899;DHT22;54699;51.796;10.956;2023-10-09T12:20:12;22.00;62.50
67899;DHT22;54699;51.796;10.956;2023-10-09T12:22:56;22.10;63.80
67899;DHT22;54699;51.796;10.956;2023-10-09T12:25:24;22.10;64.20
67899;DHT22;54699;51.796;10.956;2023-10-09T12:27:51;22.00;64.00
67899;DHT22;54699;51.796;10.956;2023-10-09T12:30:21;22.10;64.00
67899;DHT22;54699;51.796;10.956;2023-10-09T12:32:54;22.10;64.00
67899;DHT22;54699;51.796;10.956;2023-10-09T12:35:22;22.10;63.90
67899;DHT22;54699;51.796;10.956;2023-10-09T12:37:50;22.10;64.30
67899;DHT22;54699;51.796;10.956;2023-10-09T12:40:20;22.10;63.50
67899;DHT22;54699;51.796;10.956;2023-10-09T12:42:54;22.10;63.60
67899;DHT22;54699;51.796;10.956;2023-10-09T12:45:24;22.10;64.70
67899;DHT22;54699;51.796;10.956;2023-10-09T12:47:54;22.10;63.90
67899;DHT22;54699;51.796;10.956;2023-10-09T12:50:24;22.10;64.20
67899;DHT22;54699;51.796;10.956;2023-10-09T12:52:57;22.10;63.50
67899;DHT22;54699;51.796;10.956;2023-10-09T12:55:34;22.10;60.40
67899;DHT22;54699;51.796;10.956;2023-10-09T12:58:03;22.10;63.80
67899;DHT22;54699;51.796;10.956;2023-10-09T13:00:32;22.00;63.80
67899;DHT22;54699;51.796;10.956;2023-10-09T13:03:05;22.10;63.80
67899;DHT22;54699;51.796;10.956;2023-10-09T13:05:45;22.10;64.10
67899;DHT22;54699;51.796;10.956;2023-10-09T13:08:20;22.10;64.20
67899;DHT22;54699;51.796;10.956;2023-10-09T13:10:49;22.10;64.00
67899;DHT22;54699;51.796;10.956;2023-10-09T13:13:26;22.10;64.10
67899;DHT22;54699;51.796;10.956;2023-10-09T13:16:05;22.10;63.60
67899;DHT22;54699;51.796;10.956;2023-10-09T13:18:35;22.10;63.50
67899;DHT22;54699;51.796;10.956;2023-10-09T13:21:02;22.10;63.40
67899;DHT22;54699;51.796;10.956;2023-10-09T13:23:30;22.10;63.50
67899;DHT22;54699;51.796;10.956;2023-10-09T13:26:04;22.10;63.90
67899;DHT22;54699;51.796;10.956;2023-10-09T13:28:46;22.10;63.90
67899;DHT22;54699;51.796;10.956;2023-10-09T13:31:15;22.10;63.70
67899;DHT22;54699;51.796;10.956;2023-10-09T13:33:43;22.10;64.10
67899;DHT22;54699;51.796;10.956;2023-10-09T13:36:12;22.10;63.90
67899;DHT22;54699;51.796;10.956;2023-10-09T13:38:45;22.10;63.70
67899;DHT22;54699;51.796;10.956;2023-10-09T13:41:13;22.10;63.90
67899;DHT22;54699;51.796;10.956;2023-10-09T13:43:43;22.10;63.90
67899;DHT22;54699;51.796;10.956;2023-10-09T13:46:10;22.10;64.20
67899;DHT22;54699;51.796;10.956;2023-10-09T13:48:39;22.10;64.40
67899;DHT22;54699;51.796;10.956;2023-10-09T13:51:08;22.00;64.10
67899;DHT22;54699;51.796;10.956;2023-10-09T13:53:39;22.10;65.20
67899;DHT22;54699;51.796;10.956;2023-10-09T13:56:11;22.00;63.90
67899;DHT22;54699;51.796;10.956;2023-10-09T13:58:46;22.10;64.60
67899;DHT22;54699;51.796;10.956;2023-10-09T14:01:16;22.10;64.30
67899;DHT22;54699;51.796;10.956;2023-10-09T14:03:55;22.10;64.40
67899;DHT22;54699;51.796;10.956;2023-10-09T14:06:24;22.10;64.30
67899;DHT22;54699;51.796;10.956;2023-10-09T14:08:57;22.10;64.20
67899;DHT22;54699;51.796;10.956;2023-10-09T14:11:25;22.00;64.00
67899;DHT22;54699;51.796;10.956;2023-10-09T14:13:53;22.00;64.30
67899;DHT22;54699;51.796;10.956;2023-10-09T14:16:20;22.10;64.30
67899;DHT22;54699;51.796;10.956;2023-10-09T14:18:53;22.10;64.20
67899;DHT22;54699;51.796;10.956;2023-10-09T14:21:23;22.10;64.40
67899;DHT22;54699;51.796;10.956;2023-10-09T14:23:51;22.00;63.90
67899;DHT22;54699;51.796;10.956;2023-10-09T14:26:23;22.00;64.00
67899;DHT22;54699;51.796;10.956;2023-10-09T14:28:51;22.00;64.20
67899;DHT22;54699;51.796;10.956;2023-10-09T14:31:19;22.00;63.90
67899;DHT22;54699;51.796;10.956;2023-10-09T14:33:52;22.00;64.10
67899;DHT22;54699;51.796;10.956;2023-10-09T14:36:19;22.00;64.10
67899;DHT22;54699;51.796;10.956;2023-10-09T14:38:48;22.00;64.00
67899;DHT22;54699;51.796;10.956;2023-10-09T14:41:18;22.00;63.90
67899;DHT22;54699;51.796;10.956;2023-10-09T14:43:48;22.00;63.90
67899;DHT22;54699;51.796;10.956;2023-10-09T14:46:16;22.00;63.90
67899;DHT22;54699;51.796;10.956;2023-10-09T14:48:48;22.00;64.30
67899;DHT22;54699;51.796;10.956;2023-10-09T14:51:18;22.00;64.80
67899;DHT22;54699;51.796;10.956;2023-10-09T14:53:56;21.90;66.50
67899;DHT22;54699;51.796;10.956;2023-10-09T14:56:27;22.00;67.50
67899;DHT22;54699;51.796;10.956;2023-10-09T14:58:59;22.00;68.10
67899;DHT22;54699;51.796;10.956;2023-10-09T15:01:26;22.00;69.50
67899;DHT22;54699;51.796;10.956;2023-10-09T15:03:55;22.00;68.20
67899;DHT22;54699;51.796;10.956;2023-10-09T15:06:25;22.00;67.60
67899;DHT22;54699;51.796;10.956;2023-10-09T15:08:56;22.00;67.30
67899;DHT22;54699;51.796;10.956;2023-10-09T15:11:26;22.00;69.30
67899;DHT22;54699;51.796;10.956;2023-10-09T15:13:54;22.00;70.00
67899;DHT22;54699;51.796;10.956;2023-10-09T15:16:23;22.00;69.90
67899;DHT22;54699;51.796;10.956;2023-10-09T15:18:52;22.00;69.70
67899;DHT22;54699;51.796;10.956;2023-10-09T15:21:22;22.00;69.10
67899;DHT22;54699;51.796;10.956;2023-10-09T15:23:52;22.00;68.50
67899;DHT22;54699;51.796;10.956;2023-10-09T15:26:21;22.00;68.20
67899;DHT22;54699;51.796;10.956;2023-10-09T15:28:49;22.00;68.10
67899;DHT22;54699;51.796;10.956;2023-10-09T15:31:17;22.00;68.10
67899;DHT22;54699;51.796;10.956;2023-10-09T15:33:46;22.00;68.00
67899;DHT22;54699;51.796;10.956;2023-10-09T15:36:17;22.00;67.70
67899;DHT22;54699;51.796;10.956;2023-10-09T15:38:45;22.00;67.70
67899;DHT22;54699;51.796;10.956;2023-10-09T15:41:13;22.00;67.60
67899;DHT22;54699;51.796;10.956;2023-10-09T15:43:42;22.00;67.60
67899;DHT22;54699;51.796;10.956;2023-10-09T15:46:13;21.90;67.40
67899;DHT22;54699;51.796;10.956;2023-10-09T15:48:41;22.00;67.10
67899;DHT22;54699;51.796;10.956;2023-10-09T15:51:09;22.00;67.10
67899;DHT22;54699;51.796;10.956;2023-10-09T15:53:40;22.00;67.50
67899;DHT22;54699;51.796;10.956;2023-10-09T15:56:07;22.00;67.50
67899;DHT22;54699;51.796;10.956;2023-10-09T15:58:37;22.00;67.30
67899;DHT22;54699;51.796;10.956;2023-10-09T16:01:09;22.00;66.70
67899;DHT22;54699;51.796;10.956;2023-10-09T16:03:39;22.00;67.30
67899;DHT22;54699;51.796;10.956;2023-10-09T16:06:07;21.90;67.60